Nearby METAR Reports

 

EGWC - Cosford Raf, United Kingdom
Distance from station: SSW 22km
Updated: 23/02/2021 10:50
NOT Current
Mostly cloudy
Mostly cloudy
 Wind from S
Wind: S 17 mph , 28 km/h, Gust: 31 mph , 50 km/h
Temperature: 10°C
Wind Chill: 7°C
Dew Point: 5°C
Humidity: 71%
Barometer: 1015 hPa
Clouds: Mostly cloudy
Visibility: 6 miles , 10 km
Cloud details: Few Clouds 366 m
Partly cloudy 671 m
Mostly cloudy 1524 m
2021/02/23 10:50 EGWC 231050Z 18015G27KT 9999 FEW012 SCT022 BKN050 10/05 Q1015 RMK WHT
EGOS - Shawbury Raf, United Kingdom
Distance from station: W 37km
Updated: 06/03/2021 10:50
Overcast
Overcast
 Wind from SE
Wind: SE 3 mph , 6 km/h
Temperature: 5°C
Dew Point: -4°C
Humidity: 53%
Barometer: 1035 hPa
Clouds: Overcast
Visibility: 6 miles , 10 km
Cloud details: Overcast 1311 m
2021/03/06 10:50 EGOS 061050Z AUTO 14003KT 9999 OVC043/// 05/M04 Q1035
 
EGBB - Birmingham Airpo, United Kingdom
Distance from station: SE 44km
Updated: 06/03/2021 10:50
Mostly cloudy
Mostly cloudy
 Wind from varies
Wind: varies 1 mph , 2 km/h
Temperature: 3°C
Dew Point: -1°C
Humidity: 75%
Barometer: 1035 hPa
Clouds: Mostly cloudy
Visibility: 6 miles , 10 km
Cloud details: Few Clouds 732 m
Mostly cloudy 1036 m
2021/03/06 10:50 EGBB 061050Z VRB01KT 9999 FEW024 BKN034 03/M01 Q1035
EGNX - East Midlands, United Kingdom
Distance from station: E 54km
Updated: 06/03/2021 10:50
Mostly cloudy
Mostly cloudy
 Wind from varies
Wind: varies 1 mph , 2 km/h
Temperature: 4°C
Dew Point: -2°C
Humidity: 65%
Barometer: 1035 hPa
Clouds: Mostly cloudy
Visibility: 6 miles , 10 km
Cloud details: Mostly cloudy 1250 m
2021/03/06 10:50 EGNX 061050Z VRB01KT 9999 BKN041 04/M02 Q1035
 
EGCC - Manchester Intl, United Kingdom
Distance from station: N 63km
Updated: 06/03/2021 10:50
Overcast
Overcast
 Wind from varies
Wind: varies 1 mph , 2 km/h
Temperature: 4°C
Dew Point: -5°C
Humidity: 52%
Barometer: 1036 hPa
Clouds: Overcast
Visibility: 6 miles , 10 km
Cloud details: Overcast 1280 m
2021/03/06 10:50 EGCC 061050Z AUTO VRB01KT 9999 OVC042 04/M05 Q1036
EGBE - Coventry Airport, United Kingdom
Distance from station: SE 65km
Updated: 18/07/2017 14:50
NOT Current
Clear
Clear
 Wind from E
Wind: E 16 mph , 26 km/h
Temperature: 27°C
Heat Index: 27°C
Dew Point: 14°C
Humidity: 45%
Barometer: 1015 hPa
Summary: Clear
Visibility: greater than 7 miles , 10 km
2017/07/18 13:50 EGBE 181350Z 10014KT 060V120 CAVOK 27/14 Q1015
 
EGNR - Hawarden (aut), United Kingdom
Distance from station: NW 70km
Updated: 06/03/2021 10:50
Mostly cloudy
Mostly cloudy
 Wind from SSE
Wind: SSE 5 mph , 7 km/h
Temperature: 5°C
Wind Chill: 3°C
Dew Point: -2°C
Humidity: 61%
Barometer: 1036 hPa
Clouds: Mostly cloudy
Visibility: 6 miles , 10 km
Cloud details: Mostly cloudy 1341 m
2021/03/06 10:50 EGNR 061050Z 15004KT 9999 BKN044 05/M02 Q1036
EGGP - Liverpool Airpor, United Kingdom
Distance from station: NW 76km
Updated: 06/03/2021 10:50
Overcast
Overcast
 Wind from varies
Wind: varies 3 mph , 6 km/h
Temperature: 6°C
Dew Point: -1°C
Humidity: 61%
Barometer: 1036 hPa
Clouds: Overcast
Visibility: 6 miles , 10 km
Cloud details: Overcast 1250 m
2021/03/06 10:50 EGGP 061050Z AUTO VRB03KT 9999 OVC041/// 06/M01 Q1036